Time;durP1;ratioP1;P1;durP2;ratioP2;P2;SDS_P1;SDS_P2;PMS_P1;PMS_P2;Temp;Humidity;BMP_temperature;BMP_pressure;BME280_temperature;BME280_humidity;BME280_pressure;Samples;Min_cycle;Max_cycle;Signal;HPM_P1;HPM_P2
2023/03/24 00:02:15;;;;;;;;;44.67;38.67;;;;;10.00;82.38;99374.88;6314538;20;3609674;-56
2023/03/24 00:04:51;;;;;;;;;45.00;38.00;;;;;9.78;82.93;99371.88;6278812;20;2860711;-57
2023/03/24 00:07:22;;;;;;;;;47.33;39.00;;;;;9.62;82.88;99371.97;6312197;20;2869019;-57
2023/03/24 00:09:53;;;;;;;;;49.00;40.00;;;;;9.76;82.51;99374.63;6316920;20;3592992;-56
2023/03/24 00:12:22;;;;;;;;;44.50;40.00;;;;;9.83;81.45;99373.28;6280050;20;2838921;-54
2023/03/24 00:14:54;;;;;;;;;49.00;39.00;;;;;9.77;81.76;99371.00;6275483;20;2838864;-57
2023/03/24 00:17:24;;;;;;;;;48.00;40.50;;;;;9.86;81.91;99364.19;6281218;20;2838885;-57
2023/03/24 00:19:54;;;;;;;;;42.00;35.33;;;;;9.73;81.86;99366.78;6278162;20;2869023;-57
2023/03/24 00:22:27;;;;;;;;;52.67;41.67;;;;;9.61;82.42;99357.72;6311113;20;2858741;-58
2023/03/24 00:24:56;;;;;;;;;48.33;40.67;;;;;9.51;83.01;99364.59;6310076;20;3616928;-57
2023/03/24 00:27:29;;;;;;;;;47.00;39.50;;;;;9.37;83.51;99353.84;6311352;20;2855625;-58
2023/03/24 00:29:58;;;;;;;;;50.00;39.67;;;;;9.52;84.01;99354.72;6280694;20;2868017;-58
2023/03/24 00:32:29;;;;;;;;;51.67;41.33;;;;;9.16;85.20;99356.03;6311574;20;2859762;-57
2023/03/24 00:34:59;;;;;;;;;50.67;40.67;;;;;9.36;84.24;99350.31;6308284;20;2851306;-58
2023/03/24 00:37:28;;;;;;;;;48.50;40.00;;;;;9.05;84.46;99348.66;6309693;20;2848176;-56
2023/03/24 00:39:58;;;;;;;;;50.00;42.67;;;;;8.86;86.15;99343.56;6278924;20;3631563;-58
2023/03/24 00:42:28;;;;;;;;;50.33;40.33;;;;;8.97;86.00;99346.44;6310677;20;2869092;-58
2023/03/24 00:44:57;;;;;;;;;45.00;38.00;;;;;8.72;86.43;99338.19;6309492;20;2860063;-57
2023/03/24 00:47:26;;;;;;;;;47.00;39.50;;;;;8.77;86.79;99344.13;6279872;20;2859772;-55
2023/03/24 00:49:56;;;;;;;;;53.67;41.67;;;;;8.56;88.08;99330.22;6276975;20;2872257;-57
2023/03/24 00:52:32;;;;;;;;;54.33;42.67;;;;;8.46;88.12;99337.91;6309150;20;3603380;-57
2023/03/24 00:55:05;;;;;;;;;53.50;43.50;;;;;8.69;88.02;99327.63;6309954;20;2848308;-55
2023/03/24 00:57:34;;;;;;;;;55.50;43.00;;;;;8.73;87.30;99331.88;6279857;20;2865346;-58
2023/03/24 01:00:13;;;;;;;;;58.00;47.50;;;;;8.49;87.59;99320.81;6276701;20;2853461;-56
2023/03/24 01:02:45;;;;;;;;;67.00;52.33;;;;;8.43;87.85;99318.50;6276413;20;2869056;-56
2023/03/24 01:05:16;;;;;;;;;65.67;51.00;;;;;8.20;89.15;99312.63;6308467;20;3631506;-58
2023/03/24 01:07:50;;;;;;;;;60.50;48.50;;;;;8.08;90.16;99308.88;6309334;20;2855507;-57
2023/03/24 01:10:25;;;;;;;;;57.00;45.00;;;;;8.22;89.56;99299.19;6277630;20;2859723;-58
2023/03/24 01:12:57;;;;;;;;;56.50;47.50;;;;;8.22;89.35;99308.06;6279740;20;2858747;-58
2023/03/24 01:15:33;;;;;;;;;55.00;44.50;;;;;8.23;89.71;99304.44;6283502;20;2851304;-57
2023/03/24 01:18:02;;;;;;;;;52.50;44.00;;;;;8.17;89.96;99307.47;6284355;20;2825360;-58
2023/03/24 01:20:32;;;;;;;;;54.00;46.00;;;;;8.17;90.20;99307.47;6283636;20;2859686;-58
2023/03/24 01:23:06;;;;;;;;;53.00;46.00;;;;;7.87;91.29;99294.03;6284534;20;2855613;-58
2023/03/24 01:25:36;;;;;;;;;57.50;46.00;;;;;8.11;90.92;99306.03;6284985;20;2854503;-58
2023/03/24 01:28:05;;;;;;;;;60.00;47.00;;;;;7.99;90.55;99297.84;6283199;20;2831545;-58
2023/03/24 01:30:35;;;;;;;;;59.33;47.00;;;;;8.07;89.68;99303.59;6283094;20;2876349;-57
2023/03/24 01:33:05;;;;;;;;;48.00;40.00;;;;;7.80;90.45;99298.03;6317509;20;2864898;-57
2023/03/24 01:35:36;;;;;;;;;54.00;43.67;;;;;7.73;91.11;99292.16;6282134;20;2862804;-56
2023/03/24 01:38:12;;;;;;;;;57.00;45.33;;;;;7.64;90.70;99282.00;6315111;20;3614844;-58
2023/03/24 01:40:46;;;;;;;;;57.00;44.67;;;;;7.57;91.46;99285.94;6314232;20;2866980;-57
2023/03/24 01:43:26;;;;;;;;;57.67;45.00;;;;;7.45;92.56;99292.81;6316024;20;2873209;-57
2023/03/24 01:46:07;;;;;;;;;53.50;42.50;;;;;7.56;91.97;99290.44;6315945;20;2840995;-57
2023/03/24 01:49:05;;;;;;;;;55.50;46.00;;;;;7.71;91.52;99278.00;6283886;20;2850721;-57
2023/03/24 01:51:52;;;;;;;;;63.00;50.00;;;;;7.56;92.01;99279.75;6277587;20;2872166;-57
2023/03/24 01:54:41;;;;;;;;;62.50;49.50;;;;;7.35;92.83;99275.59;6279403;20;2866013;-57
2023/03/24 01:57:29;;;;;;;;;61.00;47.00;;;;;7.28;93.67;99272.38;6280896;20;2873191;-56
2023/03/24 02:00:08;;;;;;;;;58.00;48.50;;;;;7.33;93.70;99270.31;6281595;20;2848154;-57
2023/03/24 02:03:11;;;;;;;;;63.00;49.67;;;;;7.28;93.62;99258.19;6281574;20;2869133;-57
2023/03/24 02:05:46;;;;;;;;;57.00;46.00;;;;;7.35;93.84;99259.56;6312413;20;2865958;-57
2023/03/24 02:08:51;;;;;;;;;54.00;44.50;;;;;7.31;94.14;99258.00;6312842;20;2850330;-54
2023/03/24 02:11:22;;;;;;;;;44.50;32.00;;;;;7.37;93.76;99261.22;6282650;20;2853395;-56
2023/03/24 02:13:52;;;;;;;;;61.00;46.67;;;;;7.51;93.93;99255.09;6280675;20;2875372;-58
2023/03/24 02:16:46;;;;;;;;;62.00;50.00;;;;;7.60;93.29;99257.22;6312383;20;3624374;-57
2023/03/24 02:19:52;;;;;;;;;55.00;45.00;;;;;7.34;93.97;99263.16;6312457;20;2857626;-57
2023/03/24 02:23:05;;;;;;;;;7.00;6.50;;;;;7.40;93.19;99258.38;6281348;20;2750317;-58
2023/03/24 02:26:12;;;;;;;;;55.67;47.00;;;;;7.59;92.87;99252.84;6280655;20;2864894;-57
2023/03/24 02:29:23;;;;;;;;;60.33;48.00;;;;;7.24;93.87;99258.34;6313313;20;2856660;-57
2023/03/24 02:32:13;;;;;;;;;58.00;46.00;;;;;7.28;93.94;99253.69;6310362;20;2864869;-56
2023/03/24 02:36:08;;;;;;;;;55.00;45.00;;;;;7.14;93.71;99251.78;6281575;20;2850339;-57
2023/03/24 02:39:08;;;;;;;;;55.50;44.00;;;;;6.90;94.23;99253.97;6279011;20;2864820;-57
2023/03/24 02:41:49;;;;;;;;;57.50;46.00;;;;;6.63;95.05;99255.44;6281990;20;2861735;-57
2023/03/24 02:44:38;;;;;;;;;60.67;47.67;;;;;6.66;94.56;99256.16;6280258;20;2877401;-58
2023/03/24 02:47:46;;;;;;;;;47.50;41.50;;;;;6.75;94.10;99252.97;6310738;20;2847155;-56
2023/03/24 02:50:30;;;;;;;;;58.00;45.50;;;;;6.80;93.67;99242.94;6280303;20;2873235;-57
2023/03/24 02:53:30;;;;;;;;;56.50;44.00;;;;;6.73;93.32;99246.84;6279874;20;2869026;-55
2023/03/24 02:56:35;;;;;;;;;55.00;46.50;;;;;6.86;93.16;99246.22;6278927;20;2852358;-57
2023/03/24 02:59:36;;;;;;;;;49.67;39.00;;;;;6.57;93.06;99235.28;6279609;20;3624245;-55
2023/03/24 03:02:24;;;;;;;;;58.50;44.00;;;;;6.63;93.40;99250.94;6308380;20;2871149;-56
2023/03/24 03:05:20;;;;;;;;;62.33;44.33;;;;;6.66;93.20;99248.16;6279197;20;3640002;-57
2023/03/24 03:07:52;;;;;;;;;56.50;46.00;;;;;6.72;92.59;99239.81;6312135;20;2864900;-55
2023/03/24 03:10:33;;;;;;;;;60.00;48.00;;;;;6.68;93.58;99245.38;6279121;20;2862948;-59
2023/03/24 03:13:31;;;;;;;;;62.00;47.33;;;;;6.96;92.69;99248.31;6280040;20;2871097;-58
2023/03/24 03:16:24;;;;;;;;;63.00;51.67;;;;;6.65;93.66;99243.72;6308176;20;2881577;-58
2023/03/24 03:19:04;;;;;;;;;57.33;47.00;;;;;6.67;93.87;99244.53;6309175;20;2867113;-56
2023/03/24 03:21:41;;;;;;;;;62.00;48.00;;;;;6.49;94.61;99246.34;6306942;20;2885736;-57
2023/03/24 03:24:42;;;;;;;;;58.00;46.33;;;;;6.76;94.64;99245.84;6278337;20;3611729;-57
2023/03/24 03:27:20;;;;;;;;;58.00;49.00;;;;;6.63;94.40;99244.75;6310490;20;2854525;-58
2023/03/24 03:30:08;;;;;;;;;57.50;46.50;;;;;6.55;94.13;99242.47;6281921;20;2865907;-57
2023/03/24 03:32:53;;;;;;;;;58.67;45.00;;;;;6.46;94.29;99240.31;6277188;20;2872177;-59
2023/03/24 03:35:30;;;;;;;;;57.00;45.50;;;;;6.63;94.52;99234.09;6307877;20;2855559;-57
2023/03/24 03:38:15;;;;;;;;;55.50;45.50;;;;;6.68;93.31;99230.22;6275799;20;2500303;-57
2023/03/24 03:40:58;;;;;;;;;62.50;49.00;;;;;6.58;93.93;99223.66;6278852;20;2848265;-56
2023/03/24 03:43:30;;;;;;;;;61.50;50.50;;;;;6.55;94.59;99231.81;6278582;20;2865984;-57
2023/03/24 03:46:00;;;;;;;;;65.67;51.33;;;;;6.55;95.59;99231.81;6278700;20;2883699;-56
2023/03/24 03:48:30;;;;;;;;;78.33;63.00;;;;;6.60;95.73;99237.78;6311952;20;3647211;-57
2023/03/24 03:51:01;;;;;;;;;73.67;56.67;;;;;6.92;94.86;99232.53;6309487;20;3640991;-57
2023/03/24 03:54:12;;;;;;;;;70.00;54.00;;;;;6.93;93.78;99236.94;6310999;20;3632539;-55
2023/03/24 03:56:42;;;;;;;;;63.67;49.67;;;;;7.00;93.50;99235.66;6307559;20;3623202;-54
2023/03/24 03:59:34;;;;;;;;;70.33;52.33;;;;;6.84;94.48;99230.28;6308040;20;3631626;-57
2023/03/24 04:02:57;;;;;;;;;65.00;50.00;;;;;6.46;95.66;99227.84;6311364;20;2881489;-55
2023/03/24 04:05:52;;;;;;;;;69.00;54.00;;;;;6.43;96.23;99233.34;6276790;20;3628406;-55
2023/03/24 04:08:45;;;;;;;;;65.67;48.00;;;;;6.38;96.96;99225.56;6308846;20;3647134;-57
2023/03/24 04:11:55;;;;;;;;;66.33;49.00;;;;;6.46;97.01;99216.31;6306432;20;3646113;-57
2023/03/24 04:14:39;;;;;;;;;63.33;50.67;;;;;6.34;96.93;99215.13;6313251;20;3631539;-56
2023/03/24 04:17:56;;;;;;;;;86.33;71.67;;;;;6.74;94.49;99219.25;6308825;20;3665951;-54
2023/03/24 04:20:49;;;;;;;;;63.00;49.00;;;;;6.55;94.23;99221.16;6275694;20;2865927;-56
2023/03/24 04:23:44;;;;;;;;;62.00;50.00;;;;;6.45;95.50;99211.91;6273084;20;2870322;-55
2023/03/24 04:26:49;;;;;;;;;62.00;46.67;;;;;6.53;94.72;99217.69;6309176;20;2876439;-55
2023/03/24 04:29:52;;;;;;;;;57.50;46.50;;;;;6.38;95.23;99214.03;6309003;20;2860660;-54
2023/03/24 04:32:59;;;;;;;;;69.00;52.00;;;;;6.19;96.91;99213.25;6278519;20;3636741;-55
2023/03/24 04:35:39;;;;;;;;;64.33;50.33;;;;;5.89;96.31;99212.03;6307885;20;2870028;-56
2023/03/24 04:38:24;;;;;;;;;60.67;49.33;;;;;6.22;96.95;99216.63;6306297;20;3627360;-56
2023/03/24 04:40:56;;;;;;;;;60.00;47.33;;;;;6.15;95.58;99215.22;6303045;20;3630588;-56
2023/03/24 04:43:34;;;;;;;;;61.00;47.50;;;;;6.14;95.34;99218.84;6308840;20;2873236;-57
2023/03/24 04:46:07;;;;;;;;;77.33;60.33;;;;;5.86;95.97;99216.66;6274253;20;3636872;-56
2023/03/24 04:48:37;;;;;;;;;73.00;53.00;;;;;6.10;95.96;99220.78;6312070;20;3648131;-56
2023/03/24 04:51:10;;;;;;;;;73.00;55.00;;;;;5.85;96.67;99215.81;6313601;20;3634615;-55
2023/03/24 04:53:39;;;;;;;;;62.00;50.67;;;;;6.11;96.67;99216.34;6311957;20;2871113;-57
2023/03/24 04:56:34;;;;;;;;;64.00;50.00;;;;;6.16;96.71;99222.25;6315142;20;3624294;-56
2023/03/24 04:59:06;;;;;;;;;65.00;51.67;;;;;6.38;96.94;99224.72;6312889;20;2876461;-57
2023/03/24 05:01:36;;;;;;;;;74.00;57.33;;;;;6.44;96.34;99220.84;6311688;20;3632584;-57
2023/03/24 05:04:07;;;;;;;;;66.67;53.00;;;;;6.55;94.91;99223.81;6313973;20;3610064;-57
2023/03/24 05:06:36;;;;;;;;;70.67;55.00;;;;;6.37;95.87;99220.28;6314739;20;3633620;-55
2023/03/24 05:09:06;;;;;;;;;80.00;59.67;;;;;6.85;94.60;99233.81;6314619;20;3625390;-54
2023/03/24 05:11:36;;;;;;;;;84.33;62.33;;;;;7.01;93.22;99229.38;6313816;20;3661814;-57
2023/03/24 05:14:06;;;;;;;;;88.33;72.67;;;;;6.75;93.94;99222.78;6280940;20;3687817;-57
2023/03/24 05:16:36;;;;;;;;;87.33;70.00;;;;;6.95;93.73;99224.34;6281476;20;3672158;-56
2023/03/24 05:19:06;;;;;;;;;80.00;67.67;;;;;6.66;94.97;99228.59;6281176;20;3651321;-56
2023/03/24 05:21:36;;;;;;;;;84.75;63.50;;;;;6.85;95.60;99223.16;6315269;20;3659844;-55
2023/03/24 05:24:07;;;;;;;;;81.67;65.00;;;;;7.01;94.93;99224.91;6314222;20;3651431;-55
2023/03/24 05:26:37;;;;;;;;;78.00;60.67;;;;;6.87;94.42;99231.91;6313861;20;3631008;-55
2023/03/24 05:29:06;;;;;;;;;74.67;56.00;;;;;7.44;93.71;99232.34;6314379;20;3636780;-56
2023/03/24 05:31:36;;;;;;;;;75.33;55.33;;;;;7.60;91.81;99238.53;6313437;20;3641991;-57
2023/03/24 05:34:05;;;;;;;;;84.67;62.00;;;;;7.57;91.81;99235.19;6314648;20;3646149;-57
2023/03/24 05:36:35;;;;;;;;;77.33;58.67;;;;;7.64;90.96;99245.44;6314277;20;3654457;-57
2023/03/24 05:39:05;;;;;;;;;66.00;53.00;;;;;7.47;91.69;99242.84;6314019;20;3630585;-56
2023/03/24 05:41:34;;;;;;;;;72.50;54.50;;;;;7.38;91.15;99238.88;6311141;20;3527364;-57
2023/03/24 05:44:02;;;;;;;;;66.00;53.00;;;;;7.24;91.93;99253.00;6310429;20;2500240;-57
2023/03/24 05:46:32;;;;;;;;;63.00;49.00;;;;;7.52;90.61;99263.97;6279557;20;2870185;-52
2023/03/24 05:49:02;;;;;;;;;61.00;48.67;;;;;7.20;90.71;99259.44;6314405;20;2878537;-53
2023/03/24 05:51:31;;;;;;;;;61.33;48.00;;;;;7.49;91.01;99251.66;6313071;20;3637730;-55
2023/03/24 05:54:01;;;;;;;;;63.33;50.00;;;;;7.87;89.00;99251.25;6313209;20;3628395;-57
2023/03/24 05:56:31;;;;;;;;;61.67;49.00;;;;;7.86;89.56;99257.56;6312006;20;2866059;-57
2023/03/24 05:59:01;;;;;;;;;66.33;53.00;;;;;7.63;90.42;99259.72;6311111;20;3623254;-56
2023/03/24 06:01:31;;;;;;;;;64.67;52.67;;;;;7.96;90.35;99261.44;6310845;20;2874387;-56
2023/03/24 06:04:00;;;;;;;;;67.67;52.33;;;;;8.43;88.68;99271.22;6313957;20;3639845;-56
2023/03/24 06:06:30;;;;;;;;;67.00;53.00;;;;;8.27;88.17;99263.19;6313125;20;3630595;-56
2023/03/24 06:09:03;;;;;;;;;66.33;53.33;;;;;9.08;85.47;99261.91;6313696;20;3610700;-51
2023/03/24 06:11:33;;;;;;;;;63.00;49.00;;;;;10.38;80.10;99266.06;6310098;20;3632651;-56
2023/03/24 06:14:03;;;;;;;;;58.67;48.67;;;;;11.68;71.33;99274.84;6311247;20;2860784;-56
2023/03/24 06:16:32;;;;;;;;;61.67;48.33;;;;;11.02;73.46;99272.34;6310392;20;3620102;-56
2023/03/24 06:19:02;;;;;;;;;71.00;55.00;;;;;11.12;74.98;99273.44;6308749;20;3628474;-56
2023/03/24 06:21:34;;;;;;;;;51.00;41.50;;;;;13.24;66.19;99272.91;6311779;20;2850384;-56
2023/03/24 06:24:04;;;;;;;;;57.33;46.33;;;;;15.08;59.10;99282.84;6282557;20;3616945;-58
2023/03/24 06:26:34;;;;;;;;;59.00;44.67;;;;;15.95;56.28;99281.53;6313297;20;3627354;-58
2023/03/24 06:29:03;;;;;;;;;58.67;48.33;;;;;15.90;54.77;99287.34;6314963;20;3611696;-59
2023/03/24 06:31:34;;;;;;;;;54.33;44.33;;;;;17.88;48.64;99293.22;6281285;20;3625307;-59
2023/03/24 06:34:04;;;;;;;;;50.67;42.33;;;;;18.75;46.91;99296.38;6314273;20;3619087;-60
2023/03/24 06:36:34;;;;;;;;;52.33;43.00;;;;;18.58;44.61;99306.19;6281465;20;3601359;-60
2023/03/24 06:39:04;;;;;;;;;52.33;42.00;;;;;18.98;44.95;99297.56;6314420;20;3608754;-60
2023/03/24 06:41:34;;;;;;;;;50.00;42.00;;;;;19.00;44.27;99300.13;6277233;20;2857566;-60
2023/03/24 06:44:03;;;;;;;;;55.33;43.00;;;;;18.47;45.35;99299.13;6281355;20;3617964;-60
2023/03/24 06:46:32;;;;;;;;;51.33;41.00;;;;;19.10;45.08;99306.34;6315384;20;3605572;-60
2023/03/24 06:49:02;;;;;;;;;55.00;44.00;;;;;20.52;41.53;99311.31;6281633;20;3603386;-60
2023/03/24 06:51:31;;;;;;;;;54.33;43.00;;;;;20.69;41.06;99304.88;6312840;20;3606506;-59
2023/03/24 06:54:02;;;;;;;;;53.67;42.00;;;;;20.36;42.11;99303.94;6281842;20;3614829;-60
2023/03/24 06:56:30;;;;;;;;;49.00;40.00;;;;;21.25;40.25;99300.44;6315869;20;3599237;-60
2023/03/24 06:59:01;;;;;;;;;52.33;40.67;;;;;21.44;40.96;99298.41;6281706;20;3612755;-59
2023/03/24 07:01:31;;;;;;;;;49.67;42.00;;;;;22.60;38.28;99299.66;6311578;20;3599215;-58
2023/03/24 07:04:01;;;;;;;;;52.75;41.00;;;;;19.45;42.06;99286.31;6281173;20;3617968;-59
2023/03/24 07:06:32;;;;;;;;;55.00;41.50;;;;;18.23;46.90;99285.28;6314038;20;3638399;-58
2023/03/24 07:09:13;;;;;;;;;51.33;42.67;;;;;19.96;42.77;99297.34;6317752;20;3610677;-56
2023/03/24 07:11:42;;;;;;;;;45.00;38.00;;;;;18.31;45.83;99293.53;6282295;20;3578380;-58
2023/03/24 07:14:12;;;;;;;;;48.67;40.00;;;;;17.61;48.66;99299.44;6281429;20;2847272;-58
2023/03/24 07:16:40;;;;;;;;;53.00;42.00;;;;;19.21;44.98;99305.22;6316311;20;3614832;-60
2023/03/24 07:19:09;;;;;;;;;49.67;41.67;;;;;20.25;42.07;99304.22;6283601;20;3598190;-59
2023/03/24 07:21:39;;;;;;;;;45.00;36.00;;;;;24.02;34.89;99311.69;6281044;20;2866146;-59
2023/03/24 07:24:08;;;;;;;;;48.00;40.67;;;;;20.99;36.97;99310.72;6314779;20;3597192;-58
2023/03/24 07:26:37;;;;;;;;;51.67;42.00;;;;;16.49;49.33;99301.03;6284428;20;2844170;-58
2023/03/24 07:29:06;;;;;;;;;47.00;39.00;;;;;15.94;52.10;99288.81;6317015;20;3600413;-58
2023/03/24 07:31:37;;;;;;;;;51.00;42.67;;;;;16.06;53.81;99286.88;6281046;20;2855478;-58
2023/03/24 07:34:07;;;;;;;;;53.67;44.00;;;;;15.70;53.90;99291.88;6315381;20;3603469;-58
2023/03/24 07:36:36;;;;;;;;;45.33;38.33;;;;;15.45;55.38;99284.19;6281597;20;2859711;-58
2023/03/24 07:39:05;;;;;;;;;48.67;40.33;;;;;15.82;55.42;99279.06;6314371;20;3589966;-59
2023/03/24 07:41:34;;;;;;;;;48.50;40.00;;;;;15.25;56.04;99277.84;6277783;20;2847161;-58
2023/03/24 07:44:04;;;;;;;;;50.00;41.67;;;;;16.36;52.04;99288.59;6284215;20;2865894;-58
2023/03/24 07:46:33;;;;;;;;;53.00;43.67;;;;;15.59;54.41;99284.69;6314876;20;3598211;-59
2023/03/24 07:49:03;;;;;;;;;48.67;39.00;;;;;16.50;52.24;99273.78;6284146;20;2873443;-57
2023/03/24 07:51:47;;;;;;;;;55.00;44.00;;;;;16.11;53.39;99278.28;6311620;20;3626385;-57
2023/03/24 07:54:16;;;;;;;;;54.33;42.33;;;;;16.19;53.57;99275.75;6314459;20;3596336;-57
2023/03/24 07:56:45;;;;;;;;;50.50;40.50;;;;;16.26;52.63;99268.78;6282225;20;2850352;-58
2023/03/24 07:59:14;;;;;;;;;48.67;41.33;;;;;16.75;51.05;99264.22;6283800;20;3578380;-58
2023/03/24 08:01:43;;;;;;;;;47.33;38.00;;;;;16.91;50.95;99257.38;6313439;20;3586714;-59
2023/03/24 08:04:15;;;;;;;;;43.50;37.50;;;;;16.84;53.12;99255.22;6280663;20;2824283;-58
2023/03/24 08:06:45;;;;;;;;;52.00;41.67;;;;;16.98;51.61;99251.22;6283136;20;2860903;-58
2023/03/24 08:09:15;;;;;;;;;50.00;40.00;;;;;17.33;50.64;99238.84;6314808;20;3603382;-56
2023/03/24 08:11:45;;;;;;;;;49.00;38.00;;;;;16.88;51.09;99245.81;6281196;20;3605713;-57
2023/03/24 08:14:14;;;;;;;;;52.67;43.33;;;;;16.92;51.60;99234.69;6315834;20;3595448;-58
2023/03/24 08:16:45;;;;;;;;;46.00;37.67;;;;;17.25;51.17;99230.59;6283373;20;2861830;-58
2023/03/24 08:19:14;;;;;;;;;48.67;40.33;;;;;16.94;51.46;99227.25;6315203;20;3592996;-57
2023/03/24 08:21:43;;;;;;;;;49.00;40.50;;;;;17.15;50.22;99233.31;6279246;20;2838851;-57
2023/03/24 08:24:11;;;;;;;;;52.33;40.67;;;;;17.49;49.99;99227.34;6290440;20;3600355;-57
2023/03/24 08:26:41;;;;;;;;;48.67;39.33;;;;;18.03;48.85;99236.50;6287989;20;3596181;-58
2023/03/24 08:29:11;;;;;;;;;52.00;41.00;;;;;17.45;50.87;99226.78;6287522;20;2867105;-58
2023/03/24 08:31:40;;;;;;;;;48.00;39.33;;;;;17.63;50.34;99223.28;6319874;20;3584707;-54
2023/03/24 08:34:10;;;;;;;;;51.00;41.00;;;;;17.33;52.12;99222.56;6288445;20;2856666;-56
2023/03/24 08:36:40;;;;;;;;;50.00;42.00;;;;;17.60;50.31;99208.13;6320332;20;3608688;-58
2023/03/24 08:39:08;;;;;;;;;34.00;32.67;;;;;17.30;51.25;99210.16;6289148;20;3597148;-58
2023/03/24 08:41:38;;;;;;;;;52.67;41.33;;;;;17.48;51.30;99206.63;6284591;20;3621218;-57
2023/03/24 08:44:09;;;;;;;;;50.33;40.67;;;;;17.74;50.90;99204.91;6321912;20;3593021;-57
2023/03/24 08:46:39;;;;;;;;;47.33;39.67;;;;;18.08;49.67;99211.59;6283674;20;2845112;-58
2023/03/24 08:49:08;;;;;;;;;47.00;38.00;;;;;18.06;48.80;99209.03;6320211;20;3575374;-57
2023/03/24 08:51:38;;;;;;;;;41.33;37.00;;;;;18.26;47.99;99198.84;6281450;20;3602409;-57
2023/03/24 08:54:08;;;;;;;;;45.33;39.00;;;;;19.32;46.79;99211.56;6317290;20;3602408;-58
2023/03/24 08:56:39;;;;;;;;;44.67;36.00;;;;;19.13;47.53;99207.19;6284545;20;3614919;-58
2023/03/24 08:59:07;;;;;;;;;44.33;36.33;;;;;19.06;47.58;99201.53;6314485;20;3600659;-58
2023/03/24 09:01:36;;;;;;;;;39.50;32.50;;;;;19.16;45.83;99199.56;6284508;20;2839996;-58
2023/03/24 09:04:07;;;;;;;;;41.00;36.33;;;;;18.88;48.29;99192.56;6284280;20;3614181;-57
2023/03/24 09:06:35;;;;;;;;;43.33;35.33;;;;;19.38;45.49;99187.28;6321009;20;3597135;-57
2023/03/24 09:09:06;;;;;;;;;43.00;35.00;;;;;19.67;45.62;99189.63;6284366;20;2861747;-58
2023/03/24 09:11:35;;;;;;;;;38.33;33.33;;;;;20.28;44.92;99187.53;6319013;20;3595093;-58
2023/03/24 09:14:06;;;;;;;;;43.67;35.00;;;;;20.72;44.43;99200.88;6288893;20;3607564;-58
2023/03/24 09:16:34;;;;;;;;;36.67;33.00;;;;;20.04;44.08;99190.25;6289482;20;3595048;-58
2023/03/24 09:19:04;;;;;;;;;38.67;33.00;;;;;20.39;43.25;99179.03;6287935;20;3605469;-58
2023/03/24 09:21:32;;;;;;;;;34.00;31.00;;;;;20.39;44.14;99179.03;6291442;20;3609019;-58
2023/03/24 09:24:02;;;;;;;;;29.33;29.33;;;;;20.62;42.76;99172.94;6285477;20;3588829;-57
2023/03/24 09:26:32;;;;;;;;;35.67;31.67;;;;;20.60;44.09;99174.97;6290173;20;3606532;-56
2023/03/24 09:29:01;;;;;;;;;43.33;34.67;;;;;20.46;44.10;99167.41;6288027;20;3596197;-58
2023/03/24 09:31:30;;;;;;;;;41.00;35.67;;;;;21.15;42.81;99163.28;6288881;20;3596092;-57
2023/03/24 09:34:00;;;;;;;;;39.67;34.67;;;;;21.32;42.45;99163.22;6285534;20;3602511;-55
2023/03/24 09:36:31;;;;;;;;;44.00;33.33;;;;;20.69;43.35;99157.56;6288227;20;3613814;-58
2023/03/24 09:39:00;;;;;;;;;39.00;32.00;;;;;21.35;42.43;99162.84;6287288;20;3605596;-58
2023/03/24 09:41:31;;;;;;;;;36.00;32.33;;;;;21.61;41.18;99163.44;6287715;20;3603477;-58
2023/03/24 09:44:25;;;;;;;;;31.33;30.33;;;;;21.17;42.35;99155.75;6286073;20;3600280;-57
2023/03/24 09:47:26;;;;;;;;;27.25;23.75;;;;;21.75;41.49;99163.72;6316615;20;3598251;-58
2023/03/24 09:50:02;;;;;;;;;35.25;32.75;;;;;21.85;40.82;99153.41;6316539;20;3612812;-57
2023/03/24 09:52:40;;;;;;;;;35.00;32.00;;;;;22.03;41.31;99148.50;6318871;20;3604458;-54
2023/03/24 09:55:24;;;;;;;;;19.00;13.00;;;;;21.19;38.84;99145.50;6283086;20;2489978;-56
2023/03/24 09:58:02;;;;;;;;;11.67;9.67;;;;;21.75;36.94;99147.31;6318129;20;2788821;-56
2023/03/24 10:00:33;;;;;;;;;12.00;9.00;;;;;21.57;37.53;99142.16;6312772;20;3485727;-57
2023/03/24 10:03:21;;;;;;;;;10.00;10.00;;;;;22.03;35.95;99132.09;6313414;20;3514844;-56
2023/03/24 10:06:37;;;;;;;;;10.67;10.67;;;;;21.74;35.44;99135.53;6317845;20;2783665;-57
2023/03/24 10:09:27;;;;;;;;;10.33;9.00;;;;;21.65;35.64;99126.56;6311094;20;3495087;-55
2023/03/24 10:12:26;;;;;;;;;10.33;10.33;;;;;22.45;34.87;99122.56;6314505;20;3518364;-55
2023/03/24 10:15:41;;;;;;;;;12.67;9.67;;;;;22.23;35.76;99113.38;6321594;20;2781536;-56
2023/03/24 10:18:18;;;;;;;;;11.33;9.33;;;;;22.45;34.55;99125.31;6321278;20;2772290;-57
2023/03/24 10:21:16;;;;;;;;;9.00;9.00;;;;;22.51;35.14;99121.84;6322176;20;2759669;-56
2023/03/24 10:24:23;;;;;;;;;14.00;11.00;;;;;22.42;35.08;99106.53;6315560;20;2790100;-53
2023/03/24 10:27:47;;;;;;;;;12.00;11.67;;;;;22.18;36.12;99109.47;6313927;20;2491982;-54
2023/03/24 10:30:32;;;;;;;;;19.00;16.00;;;;;22.40;35.71;99108.59;6313852;20;2831534;-56
2023/03/24 10:33:01;;;;;;;;;9.00;9.00;;;;;22.37;34.65;99103.50;6291106;20;2766966;-55
2023/03/24 10:36:03;;;;;;;;;14.33;11.33;;;;;22.45;34.34;99099.84;6314646;20;3510729;-55
2023/03/24 10:38:35;;;;;;;;;13.00;10.00;;;;;22.56;34.38;99108.47;6280614;20;3512812;-55
2023/03/24 10:41:04;;;;;;;;;11.00;10.00;;;;;22.28;34.22;99094.53;6314677;20;3514843;-52
2023/03/24 10:43:33;;;;;;;;;11.00;11.00;;;;;22.79;35.41;99102.06;6314297;20;3503890;-55
2023/03/24 10:46:03;;;;;;;;;13.67;13.67;;;;;22.92;33.97;99102.25;6315283;20;2483652;-53
2023/03/24 10:48:50;;;;;;;;;10.67;9.00;;;;;22.31;34.48;99094.16;6312191;20;2777388;-56
2023/03/24 10:51:31;;;;;;;;;16.00;12.33;;;;;22.61;34.23;99098.84;6313515;20;2803429;-54
2023/03/24 10:54:30;;;;;;;;;14.67;11.00;;;;;22.74;34.77;99093.56;6315851;20;3530495;-57
2023/03/24 10:56:59;;;;;;;;;11.67;11.67;;;;;22.79;34.54;99086.47;6285867;20;2492003;-57
2023/03/24 10:59:39;;;;;;;;;14.00;14.00;;;;;22.75;34.77;99095.28;6316687;20;3530474;-56
2023/03/24 11:02:24;;;;;;;;;15.33;14.00;;;;;22.46;34.81;99080.53;6315759;20;3542002;-57
2023/03/24 11:05:10;;;;;;;;;20.33;13.33;;;;;22.97;34.08;99083.41;6312778;20;2489922;-57
2023/03/24 11:07:48;;;;;;;;;13.33;13.00;;;;;23.10;34.62;99070.94;6316449;20;2483804;-56
2023/03/24 11:10:24;;;;;;;;;13.67;13.33;;;;;23.33;34.66;99077.16;6317436;20;3533981;-56
2023/03/24 11:12:53;;;;;;;;;11.67;11.67;;;;;22.81;35.01;99078.09;6316436;20;2483628;-57
2023/03/24 11:15:29;;;;;;;;;17.33;15.33;;;;;23.13;34.95;99065.09;6318140;20;3554429;-55
2023/03/24 11:18:10;;;;;;;;;16.67;12.33;;;;;23.03;35.11;99054.41;6318483;20;3534696;-55
2023/03/24 11:20:44;;;;;;;;;15.00;15.00;;;;;23.57;34.95;99051.31;6316825;20;3540932;-57
2023/03/24 11:23:43;;;;;;;;;7.20;7.20;;;;;23.36;34.37;99049.38;6340425;20;2739862;-56
2023/03/24 11:26:20;;;;;;;;;16.33;12.00;;;;;22.54;35.41;99047.59;6312014;20;3541928;-57
2023/03/24 11:29:02;;;;;;;;;10.67;10.00;;;;;22.62;35.14;99041.19;6283472;20;3509671;-52
2023/03/24 11:31:37;;;;;;;;;13.00;11.50;;;;;22.12;35.72;99032.59;6314931;20;2675348;-58
2023/03/24 11:34:37;;;;;;;;;13.33;12.33;;;;;22.53;35.33;99037.69;6311664;20;3538797;-57
2023/03/24 11:37:24;;;;;;;;;16.00;12.33;;;;;22.55;35.53;99029.28;6280763;20;3538807;-56
2023/03/24 11:40:11;;;;;;;;;13.67;9.67;;;;;22.83;34.85;99017.66;6279504;20;3504512;-57
2023/03/24 11:43:01;;;;;;;;;8.20;8.20;;;;;22.25;35.60;99020.19;6342101;20;2755580;-48
2023/03/24 11:45:39;;;;;;;;;12.00;12.00;;;;;21.90;35.79;99014.31;6279839;20;3522176;-51
2023/03/24 11:48:49;;;;;;;;;13.33;11.00;;;;;22.21;35.38;99021.59;6310987;20;3510715;-55
2023/03/24 11:51:34;;;;;;;;;14.33;10.33;;;;;22.53;35.11;99002.09;6309157;20;3520091;-55
2023/03/24 11:54:14;;;;;;;;;9.00;7.33;;;;;22.60;34.87;98998.63;6311609;20;2755583;-55
2023/03/24 11:56:56;;;;;;;;;10.67;7.67;;;;;22.64;34.30;98986.25;6310885;20;2756641;-54